createdAt,value
2022-09-30T00:00:28.053Z,30.8
2022-09-30T00:02:32.056Z,30
2022-09-30T00:04:35.948Z,29.8
2022-09-30T00:06:42.871Z,34.5
2022-09-30T00:08:46.769Z,31.8
2022-09-30T00:10:50.674Z,28.7
2022-09-30T00:12:54.661Z,28.6
2022-09-30T00:14:58.423Z,29.8
2022-09-30T00:17:02.431Z,27.1
2022-09-30T00:19:06.317Z,27.9
2022-09-30T00:21:13.216Z,33
2022-09-30T00:23:17.128Z,31.5
2022-09-30T00:25:21.103Z,33.2
2022-09-30T00:26:24.557Z,34.2
2022-09-30T00:28:28.429Z,35.5
2022-09-30T00:30:32.325Z,32.9
2022-09-30T00:32:36.215Z,34.1
2022-09-30T00:34:43.113Z,38.8
2022-09-30T00:36:47.004Z,37.9
2022-09-30T00:38:50.914Z,37.4
2022-09-30T00:40:54.764Z,34.8
2022-09-30T00:42:58.671Z,36.2
2022-09-30T00:45:02.570Z,39.6
2022-09-30T00:47:06.514Z,37.7
2022-09-30T00:49:13.402Z,40.7
2022-09-30T00:51:17.232Z,38.6
2022-09-30T00:53:21.109Z,36.5
2022-09-30T00:55:24.985Z,38.8
2022-09-30T00:57:28.862Z,34.1
2022-09-30T00:59:32.764Z,34.5
2022-09-30T01:01:36.708Z,35
2022-09-30T01:03:43.547Z,40.8
2022-09-30T01:05:47.419Z,39.1
2022-09-30T01:07:51.310Z,34.6
2022-09-30T01:09:55.176Z,34.5
2022-09-30T01:11:59.075Z,35.3
2022-09-30T01:14:03.053Z,39.3
2022-09-30T01:16:07.130Z,34.1
2022-09-30T01:18:13.830Z,37.6
2022-09-30T01:20:17.698Z,32.9
2022-09-30T01:22:21.578Z,33.9
2022-09-30T01:23:25.012Z,35.6
2022-09-30T01:25:28.907Z,34.5
2022-09-30T01:27:32.801Z,32.8
2022-09-30T01:29:36.682Z,33.2
2022-09-30T01:31:43.744Z,35.9
2022-09-30T01:33:47.574Z,35.8
2022-09-30T01:35:51.451Z,34.3
2022-09-30T01:37:55.333Z,32.8
2022-09-30T01:39:59.231Z,36
2022-09-30T01:42:03.090Z,32.3
2022-09-30T01:44:06.976Z,32.9
2022-09-30T01:46:13.901Z,37.2
2022-09-30T01:54:29.581Z,31.3
2022-09-30T01:56:33.471Z,30
2022-09-30T02:00:44.330Z,29.2
2022-09-30T02:02:48.117Z,30.3
2022-09-30T02:06:55.845Z,25.8
2022-09-30T02:08:59.768Z,24.4
2022-09-30T02:15:14.530Z,30.3
2022-09-30T02:17:18.522Z,25.7
2022-09-30T02:19:22.432Z,28.9
2022-09-30T02:20:25.807Z,30.4
2022-09-30T02:22:29.677Z,28.9
2022-09-30T02:24:33.523Z,28
2022-09-30T02:26:37.383Z,29
2022-09-30T02:28:44.282Z,30.6
2022-09-30T02:32:52.013Z,28.1
2022-09-30T02:36:59.847Z,31.8
2022-09-30T02:39:03.700Z,26.7
2022-09-30T02:41:07.682Z,27.8
2022-09-30T02:43:14.655Z,30.5
2022-09-30T02:45:18.506Z,30
2022-09-30T02:47:22.371Z,29.7
2022-09-30T02:49:26.212Z,30
2022-09-30T02:51:30.060Z,30.2
2022-09-30T02:53:33.931Z,30.4
2022-09-30T02:55:37.779Z,33.4
2022-09-30T02:59:49.839Z,32.2
2022-09-30T03:01:52.616Z,30.6
2022-09-30T03:04:33.568Z,31
2022-09-30T03:06:00.215Z,34.5
2022-09-30T03:16:22.750Z,31.5
2022-09-30T03:20:51.125Z,41.6
2022-09-30T03:22:55.075Z,40.3
2022-09-30T03:25:01.959Z,42.6
2022-09-30T03:27:05.809Z,40.5
2022-09-30T03:29:09.748Z,40.4
2022-09-30T03:31:13.687Z,40.9
2022-09-30T03:33:17.437Z,41.3
2022-09-30T03:35:21.288Z,43.2
2022-09-30T03:37:25.160Z,42.4
2022-09-30T03:39:32.151Z,48.8
2022-09-30T03:41:35.991Z,47.9
2022-09-30T03:43:39.996Z,43.7
2022-09-30T03:45:43.723Z,47.9
2022-09-30T03:47:47.577Z,46.3
2022-09-30T03:49:51.429Z,45.3
2022-09-30T03:51:58.553Z,45.1
2022-09-30T03:54:02.194Z,46.9
2022-09-30T03:56:06.060Z,43.2
2022-09-30T03:58:10.032Z,43.7
2022-09-30T04:00:13.993Z,41.5
2022-09-30T04:02:17.884Z,39
2022-09-30T04:04:21.719Z,41.8
2022-09-30T04:06:27.137Z,40.2
2022-09-30T04:08:34.114Z,44.2
2022-09-30T04:10:37.948Z,38.8
2022-09-30T04:12:41.826Z,37.2
2022-09-30T04:13:45.355Z,38.7
2022-09-30T04:15:49.222Z,37.4
2022-09-30T04:17:53.061Z,34.3
2022-09-30T04:19:56.928Z,34.7
2022-09-30T04:22:03.824Z,35.3
2022-09-30T04:24:07.666Z,35.6
2022-09-30T04:26:11.527Z,32.7
2022-09-30T04:28:15.361Z,31.2
2022-09-30T04:30:23.877Z,31.6
2022-09-30T04:36:33.793Z,36
2022-09-30T04:40:41.489Z,36.1
2022-09-30T04:42:45.501Z,37.3
2022-09-30T04:44:49.297Z,37
2022-09-30T04:46:54.166Z,37.4
2022-09-30T04:48:56.990Z,39.3
2022-09-30T04:51:03.860Z,42.6
2022-09-30T04:53:07.717Z,45.3
2022-09-30T04:55:11.671Z,43
2022-09-30T04:57:15.606Z,43.5
2022-09-30T04:59:19.458Z,41.1
2022-09-30T05:01:23.412Z,41.7
2022-09-30T05:03:27.254Z,43.6
2022-09-30T05:05:34.115Z,44.8
2022-09-30T05:07:37.949Z,40.9
2022-09-30T05:09:41.863Z,40
2022-09-30T05:10:45.263Z,43.6
2022-09-30T05:12:49.182Z,40.2
2022-09-30T05:14:53.156Z,43.7
2022-09-30T05:16:57.105Z,40.4
2022-09-30T05:19:04.072Z,43.2
2022-09-30T05:21:07.890Z,41.2
2022-09-30T05:23:11.767Z,38.2
2022-09-30T05:25:15.635Z,38
2022-09-30T05:27:19.457Z,37.6
2022-09-30T05:29:23.675Z,36
2022-09-30T05:31:27.412Z,35.9
2022-09-30T05:33:34.305Z,35.1
2022-09-30T05:35:38.173Z,7.1
2022-09-30T05:37:41.985Z,7
2022-09-30T05:41:49.685Z,9.2
2022-09-30T05:43:53.533Z,7
2022-09-30T05:45:57.484Z,9
2022-09-30T05:48:04.422Z,9.4
2022-09-30T05:50:08.292Z,10
2022-09-30T05:52:12.229Z,6.1
2022-09-30T05:54:16.080Z,5
2022-09-30T05:56:19.914Z,5.4
2022-09-30T05:58:23.866Z,8.2
2022-09-30T06:02:34.748Z,15.7
2022-09-30T06:04:38.410Z,10.1
2022-09-30T06:06:42.252Z,15
2022-09-30T06:07:45.678Z,11
2022-09-30T06:09:49.574Z,9.7
2022-09-30T06:11:53.343Z,9.5
2022-09-30T06:13:57.194Z,14.4
2022-09-30T06:16:04.348Z,17.7
2022-09-30T06:18:08.264Z,13
2022-09-30T06:20:11.994Z,13
2022-09-30T06:24:19.781Z,11.7
2022-09-30T06:26:23.622Z,17.8
2022-09-30T06:28:27.572Z,9.3
2022-09-30T06:30:35.502Z,21.4
2022-09-30T06:32:38.428Z,17.9
2022-09-30T06:38:50.028Z,26.4
2022-09-30T06:40:53.901Z,19.5
2022-09-30T06:47:20.406Z,39.7
2022-09-30T06:49:13.886Z,24.7
2022-09-30T06:51:16.337Z,17.2
2022-09-30T06:53:20.219Z,27.9
2022-09-30T06:55:24.117Z,29.3
2022-09-30T06:57:28.015Z,37.9
2022-09-30T07:01:38.862Z,28.6
2022-09-30T07:06:00.844Z,26.8
2022-09-30T07:10:08.730Z,30.1
2022-09-30T07:14:19.579Z,38.9
2022-09-30T07:16:23.647Z,31.9
2022-09-30T07:18:27.476Z,34.6
2022-09-30T07:20:31.405Z,57.7
2022-09-30T07:22:35.376Z,59
2022-09-30T07:24:39.477Z,36.4
2022-09-30T07:26:46.310Z,40.3
2022-09-30T07:28:50.277Z,49.6
2022-09-30T07:31:13.525Z,61.3
2022-09-30T07:32:58.245Z,66.4
2022-09-30T07:35:02.248Z,62.3
2022-09-30T07:37:06.220Z,53.5
2022-09-30T07:41:17.239Z,58.5
2022-09-30T07:45:25.376Z,67.6
2022-09-30T07:47:29.319Z,68.4
2022-09-30T07:49:33.341Z,77
2022-09-30T07:51:37.384Z,86.1
2022-09-30T07:53:41.420Z,80.5
2022-09-30T07:55:48.486Z,75.7
2022-09-30T07:57:52.547Z,88.1
2022-09-30T07:59:56.569Z,80.4
2022-09-30T08:01:00.202Z,74.6
2022-09-30T08:03:04.178Z,91.7
2022-09-30T08:05:08.222Z,60.4
2022-09-30T08:09:19.425Z,56.8
2022-09-30T08:11:23.413Z,45.6
2022-09-30T08:13:27.498Z,36.3
2022-09-30T08:15:31.557Z,33.5
2022-09-30T08:17:35.647Z,29.4
2022-09-30T08:19:39.729Z,23
2022-09-30T08:21:43.784Z,15
2022-09-30T08:23:50.906Z,16.8
2022-09-30T08:25:55.003Z,15.9
2022-09-30T08:27:59.070Z,12.9
2022-09-30T08:30:04.840Z,14
2022-09-30T08:34:11.331Z,18.7
2022-09-30T08:36:15.419Z,14.9
2022-09-30T08:44:34.807Z,18.4
2022-09-30T08:48:43.029Z,17.5
2022-09-30T08:50:47.132Z,20.3
2022-09-30T08:52:54.235Z,20.6
2022-09-30T08:54:58.333Z,14.6
2022-09-30T08:58:05.993Z,21.2
2022-09-30T09:00:10.128Z,18
2022-09-30T09:02:17.401Z,23.3
2022-09-30T09:06:25.472Z,22.5
2022-09-30T09:10:33.711Z,12.2
2022-09-30T09:12:37.836Z,13.4
2022-09-30T09:16:46.117Z,11.3
2022-09-30T09:18:50.201Z,6.4
2022-09-30T09:20:57.352Z,16.4
2022-09-30T09:23:01.461Z,8.3
2022-09-30T09:25:05.570Z,8.7
2022-09-30T09:27:09.701Z,10.2
2022-09-30T09:31:18.017Z,5.7
2022-09-30T09:33:22.056Z,7.2
2022-09-30T09:35:29.226Z,6.4
2022-09-30T09:39:37.464Z,4
2022-09-30T09:41:41.589Z,11.1
2022-09-30T09:43:45.735Z,9.5
2022-09-30T09:45:49.896Z,7.7
2022-09-30T09:50:01.103Z,10.6
2022-09-30T09:52:05.231Z,8.7
2022-09-30T09:54:09.362Z,9.8
2022-09-30T09:55:12.937Z,7.6
2022-09-30T09:57:17.055Z,11.4
2022-09-30T09:59:21.540Z,8.3
2022-09-30T10:01:25.367Z,11
2022-09-30T10:03:33.997Z,7
2022-09-30T10:05:38.177Z,7.7
2022-09-30T10:07:42.272Z,4.8
2022-09-30T10:09:46.423Z,8.3
2022-09-30T10:11:50.543Z,10.7
2022-09-30T10:13:54.680Z,11.5
2022-09-30T10:15:58.997Z,13.2
2022-09-30T10:18:05.946Z,18.7
2022-09-30T10:20:10.089Z,7.1
2022-09-30T10:22:14.357Z,11.2
2022-09-30T10:24:18.409Z,7.5
2022-09-30T10:26:22.668Z,9.1
2022-09-30T10:28:26.707Z,6.3
2022-09-30T10:30:30.766Z,14.8
2022-09-30T10:32:37.897Z,7.6
2022-09-30T10:34:42.049Z,10.9
2022-09-30T10:36:46.175Z,9.7
2022-09-30T10:38:50.305Z,7.1
2022-09-30T10:40:54.435Z,9.6
2022-09-30T10:42:58.572Z,12
2022-09-30T10:49:13.983Z,9.8
2022-09-30T10:51:18.116Z,10
2022-09-30T10:53:36.829Z,13.6
2022-09-30T10:55:40.960Z,8.9
2022-09-30T10:57:45.114Z,7.7
2022-09-30T10:59:52.243Z,20.1
2022-09-30T11:01:57.643Z,9.9
2022-09-30T11:04:00.533Z,7.3
2022-09-30T11:06:04.645Z,7
2022-09-30T11:08:08.795Z,8.1
2022-09-30T11:10:12.917Z,7.9
2022-09-30T11:12:17.076Z,6.8
2022-09-30T11:14:24.221Z,7.6
2022-09-30T11:16:28.657Z,7
2022-09-30T11:18:32.483Z,5.7
2022-09-30T11:20:36.611Z,6.6
2022-09-30T11:22:40.769Z,16.6
2022-09-30T11:26:49.031Z,6.9
2022-09-30T11:28:56.196Z,8.7
2022-09-30T11:31:03.783Z,4.4
2022-09-30T11:33:04.460Z,11.4
2022-09-30T11:35:08.611Z,5.6
2022-09-30T11:37:12.735Z,10.7
2022-09-30T11:39:16.883Z,4.7
2022-09-30T11:41:21.008Z,5.5
2022-09-30T11:43:28.173Z,5.7
2022-09-30T11:47:36.434Z,6.8
2022-09-30T11:48:40.004Z,8.3
2022-09-30T11:50:44.132Z,13.3
2022-09-30T11:52:48.277Z,9.4
2022-09-30T11:54:52.418Z,6.5
2022-09-30T11:56:59.556Z,6.3
2022-09-30T12:01:07.810Z,9.4
2022-09-30T12:03:11.987Z,9
2022-09-30T12:05:16.088Z,7.9
2022-09-30T12:07:20.232Z,9.9
2022-09-30T12:09:24.363Z,4.6
2022-09-30T12:11:31.539Z,6.9
2022-09-30T12:13:35.664Z,5.1
2022-09-30T12:15:39.816Z,3.4
2022-09-30T12:17:43.948Z,6.7
2022-09-30T12:19:48.083Z,5.9
2022-09-30T12:21:52.235Z,8
2022-09-30T12:23:56.386Z,8.3
2022-09-30T12:26:03.537Z,5.7
2022-09-30T12:28:07.737Z,6
2022-09-30T12:30:11.838Z,5.7
2022-09-30T12:32:16.022Z,5.7
2022-09-30T12:34:20.099Z,5.3
2022-09-30T12:38:28.358Z,6.6
2022-09-30T12:40:35.517Z,5.2
2022-09-30T12:42:39.642Z,6.3
2022-09-30T12:45:47.403Z,6.4
2022-09-30T12:47:51.497Z,7.5
2022-09-30T12:49:55.772Z,5.4
2022-09-30T12:51:59.761Z,4.1
2022-09-30T12:54:06.901Z,2.3
2022-09-30T12:56:11.047Z,3.7
2022-09-30T12:58:15.178Z,2.7
2022-09-30T13:00:19.445Z,3.9
2022-09-30T13:04:27.585Z,2.8
2022-09-30T13:08:38.862Z,2.2
2022-09-30T13:12:47.139Z,2.9
2022-09-30T13:14:51.297Z,1.9
2022-09-30T13:16:55.456Z,1.6
2022-09-30T13:23:10.850Z,0.9
2022-09-30T13:25:14.979Z,4.3
2022-09-30T13:27:19.115Z,1.7
2022-09-30T13:29:23.244Z,2
2022-09-30T13:31:27.503Z,1.6
2022-09-30T13:33:31.541Z,1.6
2022-09-30T13:35:35.655Z,2.7
2022-09-30T13:37:42.818Z,0.9
2022-09-30T13:39:46.963Z,1.4
2022-09-30T13:41:51.095Z,1.5
2022-09-30T13:42:54.661Z,0.5
2022-09-30T13:44:58.792Z,2
2022-09-30T13:47:02.946Z,1.3
2022-09-30T13:49:07.071Z,0.9
2022-09-30T13:51:14.236Z,3.1
2022-09-30T13:53:18.354Z,1
2022-09-30T13:55:22.507Z,1.3
2022-09-30T13:57:26.625Z,3.1
2022-09-30T13:59:30.757Z,1.3
2022-09-30T14:03:39.062Z,3
2022-09-30T14:05:46.181Z,3.5
2022-09-30T14:07:50.304Z,24.8
2022-09-30T14:09:54.450Z,0.9
2022-09-30T14:11:58.582Z,0.9
2022-09-30T14:14:02.701Z,1.2
2022-09-30T14:16:06.990Z,1.5
2022-09-30T14:18:10.994Z,1.1
2022-09-30T14:20:18.130Z,3.7
2022-09-30T14:22:22.389Z,3
2022-09-30T14:24:26.402Z,2.1
2022-09-30T14:26:30.814Z,1.5
2022-09-30T14:30:38.799Z,1.4
2022-09-30T14:32:42.940Z,3.5
2022-09-30T14:34:50.116Z,1.5
2022-09-30T14:36:54.205Z,0.7
2022-09-30T14:38:58.364Z,2.3
2022-09-30T14:41:22.897Z,1.3
2022-09-30T14:43:27.020Z,1.9
2022-09-30T14:45:31.209Z,2.5
2022-09-30T14:47:38.314Z,2.3
2022-09-30T14:49:42.420Z,1.1
2022-09-30T14:51:46.569Z,1.2
2022-09-30T14:53:50.692Z,1.7
2022-09-30T14:55:54.837Z,2.7
2022-09-30T14:57:58.955Z,1.2
2022-09-30T15:00:03.098Z,3.9
2022-09-30T15:02:10.248Z,1.2
2022-09-30T15:04:14.462Z,1.1
2022-09-30T15:06:18.507Z,1
2022-09-30T15:08:22.641Z,0.7
2022-09-30T15:10:26.814Z,0.6
2022-09-30T15:12:30.913Z,0.9
2022-09-30T15:14:35.034Z,1.8
2022-09-30T15:16:42.326Z,0.9
2022-09-30T15:18:46.329Z,0.8
2022-09-30T15:20:50.458Z,2.5
2022-09-30T15:22:54.590Z,3.4
2022-09-30T15:24:58.723Z,0.8
2022-09-30T15:27:02.874Z,1.4
2022-09-30T15:29:06.977Z,1.8
2022-09-30T15:31:14.153Z,1
2022-09-30T15:33:18.245Z,2.3
2022-09-30T15:35:22.370Z,2.2
2022-09-30T15:36:25.933Z,0.8
2022-09-30T15:38:30.060Z,1
2022-09-30T15:40:34.206Z,9.7
2022-09-30T15:42:38.336Z,1.7
2022-09-30T15:44:45.486Z,2.2
2022-09-30T15:46:49.641Z,7
2022-09-30T15:48:53.731Z,1.4
2022-09-30T15:50:57.869Z,1.4
2022-09-30T15:53:01.997Z,1
2022-09-30T15:57:10.475Z,1.9
2022-09-30T15:59:18.975Z,1
2022-09-30T16:01:23.121Z,4.7
2022-09-30T16:03:27.234Z,2.2
2022-09-30T16:05:31.317Z,0.9
2022-09-30T16:07:35.462Z,6.4
2022-09-30T16:09:39.583Z,2
2022-09-30T16:17:59.128Z,2.6
2022-09-30T16:20:03.335Z,1.2
2022-09-30T16:22:07.376Z,4.2
2022-09-30T16:24:11.504Z,3.5
2022-09-30T16:26:15.624Z,1.6
2022-09-30T16:28:22.822Z,1.1
2022-09-30T16:30:26.908Z,12.9
2022-09-30T16:32:31.038Z,2.3
2022-09-30T16:33:34.610Z,1.5
2022-09-30T16:35:38.746Z,2.9
2022-09-30T16:37:42.872Z,1.9
2022-09-30T16:39:47.003Z,2.5
2022-09-30T16:48:07.269Z,9.7
2022-09-30T16:50:13.832Z,3.5
2022-09-30T16:58:30.896Z,5.8
2022-09-30T17:06:47.369Z,4.1
2022-09-30T17:08:51.484Z,2.8
2022-09-30T17:10:58.619Z,1.5
2022-09-30T17:13:02.732Z,10.4
2022-09-30T17:15:06.848Z,2.2
2022-09-30T17:17:13.478Z,1.1
2022-09-30T17:19:15.096Z,1.9
2022-09-30T17:21:19.212Z,1
2022-09-30T17:23:23.333Z,2.9
2022-09-30T17:25:30.442Z,4.1
2022-09-30T17:27:34.570Z,2.5
2022-09-30T17:29:41.820Z,4.5
2022-09-30T17:30:42.239Z,1.9
2022-09-30T17:32:46.336Z,1.9
2022-09-30T17:34:50.460Z,2.2
2022-09-30T17:36:54.593Z,4.3
2022-09-30T17:39:01.728Z,1.6
2022-09-30T17:41:05.807Z,3.4
2022-09-30T17:43:09.911Z,5.5
2022-09-30T17:47:18.157Z,2.7
2022-09-30T17:49:24.173Z,2.6
2022-09-30T17:51:26.373Z,2.7
2022-09-30T17:55:37.627Z,3
2022-09-30T17:57:41.737Z,9.3
2022-09-30T17:59:45.825Z,3
2022-09-30T18:03:54.054Z,5.4
2022-09-30T18:05:58.220Z,4.4
2022-09-30T18:08:05.340Z,10.4
2022-09-30T18:10:09.457Z,2.7
2022-09-30T18:12:13.572Z,5.3
2022-09-30T18:14:17.680Z,3.7
2022-09-30T18:16:21.850Z,7.2
2022-09-30T18:18:25.900Z,9.2
2022-09-30T18:20:30.006Z,7.4
2022-09-30T18:22:37.119Z,2.9
2022-09-30T18:24:41.238Z,4.7
2022-09-30T18:26:45.331Z,3.8
2022-09-30T18:29:09.674Z,3.1
2022-09-30T18:31:13.849Z,6.1
2022-09-30T18:33:17.855Z,3.2
2022-09-30T18:41:40.652Z,2.5
2022-09-30T18:47:49.575Z,3
2022-09-30T18:49:56.672Z,8
2022-09-30T18:52:00.791Z,10.8
2022-09-30T18:54:04.891Z,3
2022-09-30T18:56:08.972Z,5.6
2022-09-30T18:58:13.070Z,4.8
2022-09-30T19:00:17.139Z,2.6
2022-09-30T19:02:21.225Z,2.8
2022-09-30T19:04:28.346Z,1.3
2022-09-30T19:06:32.414Z,11.1
2022-09-30T19:08:36.489Z,3.6
2022-09-30T19:10:40.585Z,7.3
2022-09-30T19:16:52.878Z,3.8
2022-09-30T19:18:59.918Z,2.9
2022-09-30T19:21:03.977Z,5.2
2022-09-30T19:24:11.649Z,4.4
2022-09-30T19:26:15.724Z,2.8
2022-09-30T19:28:19.794Z,3.2
2022-09-30T19:34:35.027Z,3.6
2022-09-30T19:36:47.570Z,5.8
2022-09-30T19:38:43.196Z,1.5
2022-09-30T19:40:47.277Z,4.8
2022-09-30T19:42:51.348Z,6.1
2022-09-30T19:44:55.436Z,4.1
2022-09-30T19:47:02.547Z,9.8
2022-09-30T19:51:10.667Z,8.7
2022-09-30T19:57:22.906Z,8.9
2022-09-30T20:01:34.534Z,9.7
2022-09-30T20:03:38.186Z,7.1
2022-09-30T20:05:42.264Z,3.6
2022-09-30T20:07:46.336Z,2.8
2022-09-30T20:09:50.426Z,4.2
2022-09-30T20:11:54.503Z,3.2
2022-09-30T20:16:05.728Z,3.5
2022-09-30T20:18:09.796Z,3.3
2022-09-30T20:20:13.889Z,7.4
2022-09-30T20:21:17.414Z,5.1
2022-09-30T20:23:21.496Z,6.8
2022-09-30T20:25:25.597Z,3
2022-09-30T20:27:29.680Z,10.4
2022-09-30T20:29:36.789Z,3.6
2022-09-30T20:31:40.971Z,2.4
2022-09-30T20:33:45.000Z,3.3
2022-09-30T20:35:49.084Z,4.9
2022-09-30T20:42:01.364Z,1.6
2022-09-30T20:44:08.462Z,2.2
2022-09-30T20:46:12.648Z,3.2
2022-09-30T20:48:16.682Z,1.2
2022-09-30T20:50:20.756Z,2.9
2022-09-30T20:52:24.862Z,2.8
2022-09-30T20:54:28.932Z,6.1
2022-09-30T20:56:50.123Z,2.3
2022-09-30T20:58:40.164Z,3.9
2022-09-30T21:00:44.322Z,4
2022-09-30T21:02:48.368Z,6.9
2022-09-30T21:04:52.684Z,6.7
2022-09-30T21:06:56.540Z,1.3
2022-09-30T21:09:00.660Z,2.2
2022-09-30T21:11:04.774Z,5.3
2022-09-30T21:13:11.874Z,2.9
2022-09-30T21:15:15.998Z,2.8
2022-09-30T21:17:20.116Z,4.7
2022-09-30T21:18:23.676Z,2.7
2022-09-30T21:20:27.749Z,2.7
2022-09-30T21:22:31.846Z,3
2022-09-30T21:24:35.958Z,2.9
2022-09-30T21:26:43.075Z,2
2022-09-30T21:28:49.325Z,5.2
2022-09-30T21:30:51.267Z,3.1
2022-09-30T21:32:55.382Z,4.2
2022-09-30T21:37:03.565Z,2.3
2022-09-30T21:39:07.674Z,3
2022-09-30T21:41:14.780Z,3.1
2022-09-30T21:43:18.881Z,1.6
2022-09-30T21:47:27.117Z,7
2022-09-30T21:55:46.522Z,1.5
2022-09-30T21:57:50.634Z,1.5
2022-09-30T21:59:56.283Z,2.5
2022-09-30T22:02:00.400Z,2.9
2022-09-30T22:08:12.667Z,2.9
2022-09-30T22:10:19.774Z,2.2
2022-09-30T22:14:27.991Z,5
2022-09-30T22:16:52.576Z,5.4
2022-09-30T22:18:56.615Z,2.2
2022-09-30T22:21:00.705Z,2.9
2022-09-30T22:23:07.828Z,3.7
2022-09-30T22:25:11.924Z,2.3
2022-09-30T22:27:16.023Z,6.1
2022-09-30T22:29:20.152Z,4.8
2022-09-30T22:31:24.272Z,4.7
2022-09-30T22:33:28.334Z,9.6
2022-09-30T22:35:32.431Z,8.6
2022-09-30T22:37:39.512Z,3.4
2022-09-30T22:39:43.632Z,3.4
2022-09-30T22:41:47.734Z,6.4
2022-09-30T22:43:51.804Z,3.7
2022-09-30T22:45:55.953Z,3.3
2022-09-30T22:47:59.997Z,4.1
2022-09-30T22:50:04.095Z,3.6
2022-09-30T22:52:11.189Z,3.4
2022-09-30T22:54:15.265Z,4.6
2022-09-30T22:56:19.340Z,3.7
2022-09-30T22:58:23.424Z,12.6
2022-09-30T23:00:27.519Z,6
2022-09-30T23:02:31.683Z,4.8
2022-09-30T23:04:35.672Z,5.5
2022-09-30T23:06:42.754Z,3.4
2022-09-30T23:08:46.821Z,4.1
2022-09-30T23:10:50.907Z,6.5
2022-09-30T23:13:59.343Z,3.2
2022-09-30T23:16:02.568Z,6.2
2022-09-30T23:18:06.646Z,7.9
2022-09-30T23:22:18.859Z,8.8
2022-09-30T23:24:22.907Z,5.2
2022-09-30T23:26:26.997Z,7.9
2022-09-30T23:28:30.986Z,6.5
2022-09-30T23:32:39.215Z,14.1
2022-09-30T23:34:46.191Z,4.9
2022-09-30T23:40:58.355Z,5.3
2022-09-30T23:45:06.513Z,5.4
2022-09-30T23:47:10.655Z,4.6
2022-09-30T23:49:17.685Z,6.4
2022-09-30T23:51:21.692Z,4.2
2022-09-30T23:53:25.729Z,6.5
2022-09-30T23:55:29.784Z,7.5
2022-09-30T23:59:37.901Z,5.3
